sensor_id;sensor_type;location;lat;lon;timestamp;P1;durP1;ratioP1;P2;durP2;ratioP2
43216;SDS011;60511;42.686;23.300;2022-12-19T00:00:23;9.95;;;8.65;;
43216;SDS011;60511;42.686;23.300;2022-12-19T00:02:24;8.85;;;7.97;;
43216;SDS011;60511;42.686;23.300;2022-12-19T00:04:24;9.40;;;8.40;;
43216;SDS011;60511;42.686;23.300;2022-12-19T00:06:25;9.52;;;8.63;;
43216;SDS011;60511;42.686;23.300;2022-12-19T00:08:27;9.32;;;8.30;;
43216;SDS011;60511;42.686;23.300;2022-12-19T00:10:27;8.80;;;7.90;;
43216;SDS011;60511;42.686;23.300;2022-12-19T00:12:28;9.75;;;8.63;;
43216;SDS011;60511;42.686;23.300;2022-12-19T00:14:28;9.10;;;8.20;;
43216;SDS011;60511;42.686;23.300;2022-12-19T00:16:29;9.60;;;8.68;;
43216;SDS011;60511;42.686;23.300;2022-12-19T00:18:30;9.02;;;8.05;;
43216;SDS011;60511;42.686;23.300;2022-12-19T00:20:31;8.93;;;8.02;;
43216;SDS011;60511;42.686;23.300;2022-12-19T00:22:32;8.90;;;8.10;;
43216;SDS011;60511;42.686;23.300;2022-12-19T00:24:32;9.07;;;8.18;;
43216;SDS011;60511;42.686;23.300;2022-12-19T00:26:34;9.18;;;8.00;;
43216;SDS011;60511;42.686;23.300;2022-12-19T00:28:35;8.50;;;7.70;;
43216;SDS011;60511;42.686;23.300;2022-12-19T00:30:37;9.45;;;8.35;;
43216;SDS011;60511;42.686;23.300;2022-12-19T00:32:37;9.32;;;8.07;;
43216;SDS011;60511;42.686;23.300;2022-12-19T00:34:37;9.35;;;8.45;;
43216;SDS011;60511;42.686;23.300;2022-12-19T00:36:38;9.20;;;8.25;;
43216;SDS011;60511;42.686;23.300;2022-12-19T00:38:38;9.02;;;8.13;;
43216;SDS011;60511;42.686;23.300;2022-12-19T00:40:39;9.43;;;8.10;;
43216;SDS011;60511;42.686;23.300;2022-12-19T00:42:41;8.30;;;7.50;;
43216;SDS011;60511;42.686;23.300;2022-12-19T00:44:42;10.05;;;8.32;;
43216;SDS011;60511;42.686;23.300;2022-12-19T00:46:42;8.23;;;7.53;;
43216;SDS011;60511;42.686;23.300;2022-12-19T00:48:43;10.13;;;8.93;;
43216;SDS011;60511;42.686;23.300;2022-12-19T00:50:43;8.57;;;7.78;;
43216;SDS011;60511;42.686;23.300;2022-12-19T00:52:43;9.25;;;8.18;;
43216;SDS011;60511;42.686;23.300;2022-12-19T00:54:44;9.15;;;8.23;;
43216;SDS011;60511;42.686;23.300;2022-12-19T00:56:44;8.57;;;7.60;;
43216;SDS011;60511;42.686;23.300;2022-12-19T00:58:45;8.70;;;7.80;;
43216;SDS011;60511;42.686;23.300;2022-12-19T01:00:46;9.18;;;8.27;;
43216;SDS011;60511;42.686;23.300;2022-12-19T01:02:47;9.93;;;8.93;;
43216;SDS011;60511;42.686;23.300;2022-12-19T01:04:47;9.35;;;8.38;;
43216;SDS011;60511;42.686;23.300;2022-12-19T01:06:48;9.40;;;8.50;;
43216;SDS011;60511;42.686;23.300;2022-12-19T01:08:48;9.07;;;8.18;;
43216;SDS011;60511;42.686;23.300;2022-12-19T01:10:50;9.05;;;8.00;;
43216;SDS011;60511;42.686;23.300;2022-12-19T01:12:50;8.93;;;8.02;;
43216;SDS011;60511;42.686;23.300;2022-12-19T01:14:51;8.88;;;7.97;;
43216;SDS011;60511;42.686;23.300;2022-12-19T01:16:53;9.77;;;7.88;;
43216;SDS011;60511;42.686;23.300;2022-12-19T01:18:53;9.95;;;8.15;;
43216;SDS011;60511;42.686;23.300;2022-12-19T01:20:53;11.05;;;7.97;;
43216;SDS011;60511;42.686;23.300;2022-12-19T01:22:54;10.52;;;9.10;;
43216;SDS011;60511;42.686;23.300;2022-12-19T01:24:54;9.77;;;8.02;;
43216;SDS011;60511;42.686;23.300;2022-12-19T01:26:54;8.75;;;7.90;;
43216;SDS011;60511;42.686;23.300;2022-12-19T01:28:55;9.95;;;7.80;;
43216;SDS011;60511;42.686;23.300;2022-12-19T01:30:55;9.02;;;8.13;;
43216;SDS011;60511;42.686;23.300;2022-12-19T01:32:56;8.57;;;7.75;;
43216;SDS011;60511;42.686;23.300;2022-12-19T01:34:57;9.52;;;8.63;;
43216;SDS011;60511;42.686;23.300;2022-12-19T01:36:57;9.20;;;8.23;;
43216;SDS011;60511;42.686;23.300;2022-12-19T01:38:58;9.50;;;8.02;;
43216;SDS011;60511;42.686;23.300;2022-12-19T01:40:58;8.57;;;7.78;;
43216;SDS011;60511;42.686;23.300;2022-12-19T01:43:00;8.50;;;7.70;;
43216;SDS011;60511;42.686;23.300;2022-12-19T01:47:01;8.05;;;7.13;;
43216;SDS011;60511;42.686;23.300;2022-12-19T01:49:02;8.75;;;7.93;;
43216;SDS011;60511;42.686;23.300;2022-12-19T01:53:13;8.52;;;7.72;;
43216;SDS011;60511;42.686;23.300;2022-12-19T01:55:14;9.23;;;8.32;;
43216;SDS011;60511;42.686;23.300;2022-12-19T01:57:14;9.98;;;8.98;;
43216;SDS011;60511;42.686;23.300;2022-12-19T01:59:19;10.38;;;7.97;;
43216;SDS011;60511;42.686;23.300;2022-12-19T02:01:24;9.38;;;8.48;;
43216;SDS011;60511;42.686;23.300;2022-12-19T02:03:26;8.60;;;7.70;;
43216;SDS011;60511;42.686;23.300;2022-12-19T02:05:28;8.75;;;7.85;;
43216;SDS011;60511;42.686;23.300;2022-12-19T02:07:29;8.95;;;8.05;;
43216;SDS011;60511;42.686;23.300;2022-12-19T02:09:32;8.95;;;8.15;;
43216;SDS011;60511;42.686;23.300;2022-12-19T02:11:33;8.80;;;8.00;;
43216;SDS011;60511;42.686;23.300;2022-12-19T02:13:34;9.15;;;8.25;;
43216;SDS011;60511;42.686;23.300;2022-12-19T02:15:39;8.55;;;7.75;;
43216;SDS011;60511;42.686;23.300;2022-12-19T02:20:13;8.63;;;7.82;;
43216;SDS011;60511;42.686;23.300;2022-12-19T02:26:56;9.07;;;8.18;;
43216;SDS011;60511;42.686;23.300;2022-12-19T02:31:46;9.05;;;7.85;;
43216;SDS011;60511;42.686;23.300;2022-12-19T02:36:06;8.27;;;7.47;;
43216;SDS011;60511;42.686;23.300;2022-12-19T02:40:37;7.97;;;7.28;;
43216;SDS011;60511;42.686;23.300;2022-12-19T02:42:43;8.82;;;7.93;;
43216;SDS011;60511;42.686;23.300;2022-12-19T02:44:48;8.73;;;7.93;;
43216;SDS011;60511;42.686;23.300;2022-12-19T02:46:51;8.73;;;7.93;;
43216;SDS011;60511;42.686;23.300;2022-12-19T02:48:53;8.68;;;7.78;;
43216;SDS011;60511;42.686;23.300;2022-12-19T02:50:54;8.20;;;7.47;;
43216;SDS011;60511;42.686;23.300;2022-12-19T02:52:54;8.75;;;7.88;;
43216;SDS011;60511;42.686;23.300;2022-12-19T02:54:55;8.32;;;7.53;;
43216;SDS011;60511;42.686;23.300;2022-12-19T02:57:03;8.73;;;7.53;;
43216;SDS011;60511;42.686;23.300;2022-12-19T02:59:14;8.45;;;7.65;;
43216;SDS011;60511;42.686;23.300;2022-12-19T03:01:56;7.63;;;6.93;;
43216;SDS011;60511;42.686;23.300;2022-12-19T03:06:31;9.13;;;8.23;;
43216;SDS011;60511;42.686;23.300;2022-12-19T03:10:43;8.73;;;7.88;;
43216;SDS011;60511;42.686;23.300;2022-12-19T03:12:52;8.90;;;8.10;;
43216;SDS011;60511;42.686;23.300;2022-12-19T03:14:57;9.90;;;9.00;;
43216;SDS011;60511;42.686;23.300;2022-12-19T03:17:05;8.45;;;7.72;;
43216;SDS011;60511;42.686;23.300;2022-12-19T03:19:07;8.32;;;7.53;;
43216;SDS011;60511;42.686;23.300;2022-12-19T03:23:16;8.05;;;7.30;;
43216;SDS011;60511;42.686;23.300;2022-12-19T03:25:18;8.32;;;7.57;;
43216;SDS011;60511;42.686;23.300;2022-12-19T03:27:23;7.90;;;7.20;;
43216;SDS011;60511;42.686;23.300;2022-12-19T03:31:50;8.20;;;7.40;;
43216;SDS011;60511;42.686;23.300;2022-12-19T03:33:59;8.25;;;7.45;;
43216;SDS011;60511;42.686;23.300;2022-12-19T03:36:03;8.27;;;7.50;;
43216;SDS011;60511;42.686;23.300;2022-12-19T03:38:09;8.68;;;7.88;;
43216;SDS011;60511;42.686;23.300;2022-12-19T03:40:13;8.50;;;7.70;;
43216;SDS011;60511;42.686;23.300;2022-12-19T03:42:17;7.90;;;7.20;;
43216;SDS011;60511;42.686;23.300;2022-12-19T03:44:42;8.77;;;7.90;;
43216;SDS011;60511;42.686;23.300;2022-12-19T03:46:45;9.27;;;8.27;;
43216;SDS011;60511;42.686;23.300;2022-12-19T03:48:51;8.68;;;7.78;;
43216;SDS011;60511;42.686;23.300;2022-12-19T03:50:57;8.40;;;7.50;;
43216;SDS011;60511;42.686;23.300;2022-12-19T03:55:26;8.07;;;7.28;;
43216;SDS011;60511;42.686;23.300;2022-12-19T03:57:35;8.32;;;7.53;;
43216;SDS011;60511;42.686;23.300;2022-12-19T04:01:55;7.60;;;6.90;;
43216;SDS011;60511;42.686;23.300;2022-12-19T04:03:57;8.18;;;7.40;;
43216;SDS011;60511;42.686;23.300;2022-12-19T04:05:59;8.50;;;7.60;;
43216;SDS011;60511;42.686;23.300;2022-12-19T04:08:02;8.18;;;7.38;;
43216;SDS011;60511;42.686;23.300;2022-12-19T04:10:05;8.52;;;7.72;;
43216;SDS011;60511;42.686;23.300;2022-12-19T04:12:13;9.77;;;8.63;;
43216;SDS011;60511;42.686;23.300;2022-12-19T04:14:22;8.15;;;7.35;;
43216;SDS011;60511;42.686;23.300;2022-12-19T04:16:29;8.07;;;7.28;;
43216;SDS011;60511;42.686;23.300;2022-12-19T04:18:37;8.60;;;7.80;;
43216;SDS011;60511;42.686;23.300;2022-12-19T04:20:44;8.48;;;7.68;;
43216;SDS011;60511;42.686;23.300;2022-12-19T04:22:52;8.45;;;7.63;;
43216;SDS011;60511;42.686;23.300;2022-12-19T04:25:02;8.30;;;7.45;;
43216;SDS011;60511;42.686;23.300;2022-12-19T04:27:07;8.32;;;7.43;;
43216;SDS011;60511;42.686;23.300;2022-12-19T04:29:10;7.65;;;6.95;;
43216;SDS011;60511;42.686;23.300;2022-12-19T04:31:14;8.65;;;7.95;;
43216;SDS011;60511;42.686;23.300;2022-12-19T04:33:16;8.15;;;7.35;;
43216;SDS011;60511;42.686;23.300;2022-12-19T04:35:17;8.35;;;7.55;;
43216;SDS011;60511;42.686;23.300;2022-12-19T04:37:17;8.82;;;8.02;;
43216;SDS011;60511;42.686;23.300;2022-12-19T04:39:18;7.60;;;6.90;;
43216;SDS011;60511;42.686;23.300;2022-12-19T04:41:18;8.57;;;7.78;;
43216;SDS011;60511;42.686;23.300;2022-12-19T04:43:18;8.43;;;7.72;;
43216;SDS011;60511;42.686;23.300;2022-12-19T04:45:19;8.18;;;7.35;;
43216;SDS011;60511;42.686;23.300;2022-12-19T04:47:19;8.70;;;7.90;;
43216;SDS011;60511;42.686;23.300;2022-12-19T04:49:19;8.68;;;7.85;;
43216;SDS011;60511;42.686;23.300;2022-12-19T04:51:20;7.95;;;7.15;;
43216;SDS011;60511;42.686;23.300;2022-12-19T04:53:20;8.77;;;7.88;;
43216;SDS011;60511;42.686;23.300;2022-12-19T04:55:21;8.27;;;7.47;;
43216;SDS011;60511;42.686;23.300;2022-12-19T04:57:21;8.38;;;7.63;;
43216;SDS011;60511;42.686;23.300;2022-12-19T04:59:21;7.80;;;7.07;;
43216;SDS011;60511;42.686;23.300;2022-12-19T05:01:22;8.65;;;7.75;;
43216;SDS011;60511;42.686;23.300;2022-12-19T05:03:22;8.25;;;7.45;;
43216;SDS011;60511;42.686;23.300;2022-12-19T05:05:23;7.68;;;6.97;;
43216;SDS011;60511;42.686;23.300;2022-12-19T05:07:24;8.40;;;7.30;;
43216;SDS011;60511;42.686;23.300;2022-12-19T05:09:26;7.72;;;7.03;;
43216;SDS011;60511;42.686;23.300;2022-12-19T05:11:26;9.02;;;8.23;;
43216;SDS011;60511;42.686;23.300;2022-12-19T05:13:26;8.32;;;7.53;;
43216;SDS011;60511;42.686;23.300;2022-12-19T05:15:28;8.70;;;7.90;;
43216;SDS011;60511;42.686;23.300;2022-12-19T05:17:28;8.50;;;7.70;;
43216;SDS011;60511;42.686;23.300;2022-12-19T05:19:28;8.43;;;7.63;;
43216;SDS011;60511;42.686;23.300;2022-12-19T05:21:29;8.70;;;7.90;;
43216;SDS011;60511;42.686;23.300;2022-12-19T05:23:29;8.30;;;7.50;;
43216;SDS011;60511;42.686;23.300;2022-12-19T05:25:30;8.32;;;7.40;;
43216;SDS011;60511;42.686;23.300;2022-12-19T05:27:31;8.57;;;7.78;;
43216;SDS011;60511;42.686;23.300;2022-12-19T05:29:31;8.90;;;8.10;;
43216;SDS011;60511;42.686;23.300;2022-12-19T05:31:32;8.25;;;7.18;;
43216;SDS011;60511;42.686;23.300;2022-12-19T05:33:33;8.60;;;7.80;;
43216;SDS011;60511;42.686;23.300;2022-12-19T05:35:34;8.45;;;7.55;;
43216;SDS011;60511;42.686;23.300;2022-12-19T05:37:34;7.90;;;7.20;;
43216;SDS011;60511;42.686;23.300;2022-12-19T05:39:35;8.70;;;7.40;;
43216;SDS011;60511;42.686;23.300;2022-12-19T05:41:35;8.82;;;8.02;;
43216;SDS011;60511;42.686;23.300;2022-12-19T05:43:37;9.05;;;8.05;;
43216;SDS011;60511;42.686;23.300;2022-12-19T05:45:38;8.30;;;7.43;;
43216;SDS011;60511;42.686;23.300;2022-12-19T05:47:38;8.63;;;7.85;;
43216;SDS011;60511;42.686;23.300;2022-12-19T05:49:39;8.80;;;8.00;;
43216;SDS011;60511;42.686;23.300;2022-12-19T05:51:39;8.95;;;8.05;;
43216;SDS011;60511;42.686;23.300;2022-12-19T05:53:40;9.10;;;8.30;;
43216;SDS011;60511;42.686;23.300;2022-12-19T05:55:40;9.07;;;8.18;;
43216;SDS011;60511;42.686;23.300;2022-12-19T05:57:41;8.05;;;7.25;;
43216;SDS011;60511;42.686;23.300;2022-12-19T05:59:41;8.82;;;7.97;;
43216;SDS011;60511;42.686;23.300;2022-12-19T06:01:42;8.95;;;7.70;;
43216;SDS011;60511;42.686;23.300;2022-12-19T06:03:42;9.75;;;8.77;;
43216;SDS011;60511;42.686;23.300;2022-12-19T06:05:43;8.98;;;8.10;;
43216;SDS011;60511;42.686;23.300;2022-12-19T06:07:43;8.30;;;7.50;;
43216;SDS011;60511;42.686;23.300;2022-12-19T06:09:44;8.60;;;7.80;;
43216;SDS011;60511;42.686;23.300;2022-12-19T06:11:44;7.93;;;7.20;;
43216;SDS011;60511;42.686;23.300;2022-12-19T06:13:44;9.55;;;8.65;;
43216;SDS011;60511;42.686;23.300;2022-12-19T06:15:45;8.73;;;7.93;;
43216;SDS011;60511;42.686;23.300;2022-12-19T06:17:45;8.80;;;7.70;;
43216;SDS011;60511;42.686;23.300;2022-12-19T06:19:46;8.43;;;7.63;;
43216;SDS011;60511;42.686;23.300;2022-12-19T06:21:46;9.32;;;8.43;;
43216;SDS011;60511;42.686;23.300;2022-12-19T06:23:47;9.23;;;8.32;;
43216;SDS011;60511;42.686;23.300;2022-12-19T06:25:48;8.45;;;7.38;;
43216;SDS011;60511;42.686;23.300;2022-12-19T06:27:48;8.48;;;7.68;;
43216;SDS011;60511;42.686;23.300;2022-12-19T06:29:48;8.93;;;8.02;;
43216;SDS011;60511;42.686;23.300;2022-12-19T06:31:49;8.48;;;7.68;;
43216;SDS011;60511;42.686;23.300;2022-12-19T06:33:49;8.07;;;7.28;;
43216;SDS011;60511;42.686;23.300;2022-12-19T06:36:00;8.77;;;7.95;;
43216;SDS011;60511;42.686;23.300;2022-12-19T06:38:02;8.88;;;8.02;;
43216;SDS011;60511;42.686;23.300;2022-12-19T06:40:03;9.35;;;8.52;;
43216;SDS011;60511;42.686;23.300;2022-12-19T06:42:04;9.40;;;7.95;;
43216;SDS011;60511;42.686;23.300;2022-12-19T06:44:30;9.18;;;8.27;;
43216;SDS011;60511;42.686;23.300;2022-12-19T06:46:32;8.50;;;7.70;;
43216;SDS011;60511;42.686;23.300;2022-12-19T06:48:33;9.05;;;8.25;;
43216;SDS011;60511;42.686;23.300;2022-12-19T06:50:33;9.05;;;8.15;;
43216;SDS011;60511;42.686;23.300;2022-12-19T06:52:34;8.82;;;8.02;;
43216;SDS011;60511;42.686;23.300;2022-12-19T06:54:35;8.90;;;7.57;;
43216;SDS011;60511;42.686;23.300;2022-12-19T06:56:35;9.55;;;8.43;;
43216;SDS011;60511;42.686;23.300;2022-12-19T06:58:36;8.80;;;7.90;;
43216;SDS011;60511;42.686;23.300;2022-12-19T07:00:37;9.23;;;8.32;;
43216;SDS011;60511;42.686;23.300;2022-12-19T07:02:37;8.65;;;7.80;;
43216;SDS011;60511;42.686;23.300;2022-12-19T07:04:42;8.70;;;7.80;;
43216;SDS011;60511;42.686;23.300;2022-12-19T07:06:46;9.10;;;8.20;;
43216;SDS011;60511;42.686;23.300;2022-12-19T07:08:47;9.70;;;8.55;;
43216;SDS011;60511;42.686;23.300;2022-12-19T07:10:47;9.27;;;8.38;;
43216;SDS011;60511;42.686;23.300;2022-12-19T07:12:47;9.10;;;8.10;;
43216;SDS011;60511;42.686;23.300;2022-12-19T07:14:48;14.13;;;8.10;;
43216;SDS011;60511;42.686;23.300;2022-12-19T07:16:48;12.75;;;8.70;;
43216;SDS011;60511;42.686;23.300;2022-12-19T07:18:51;12.77;;;9.20;;
43216;SDS011;60511;42.686;23.300;2022-12-19T07:20:52;14.88;;;8.15;;
43216;SDS011;60511;42.686;23.300;2022-12-19T07:22:52;10.50;;;7.85;;
43216;SDS011;60511;42.686;23.300;2022-12-19T07:24:53;10.45;;;9.18;;
43216;SDS011;60511;42.686;23.300;2022-12-19T07:26:55;15.95;;;9.23;;
43216;SDS011;60511;42.686;23.300;2022-12-19T07:28:55;12.02;;;8.95;;
43216;SDS011;60511;42.686;23.300;2022-12-19T07:30:56;18.35;;;8.32;;
43216;SDS011;60511;42.686;23.300;2022-12-19T07:32:57;16.63;;;7.97;;
43216;SDS011;60511;42.686;23.300;2022-12-19T07:34:57;9.70;;;8.05;;
43216;SDS011;60511;42.686;23.300;2022-12-19T07:36:58;13.45;;;8.35;;
43216;SDS011;60511;42.686;23.300;2022-12-19T07:39:00;11.90;;;9.00;;
43216;SDS011;60511;42.686;23.300;2022-12-19T07:41:02;10.63;;;8.67;;
43216;SDS011;60511;42.686;23.300;2022-12-19T07:43:03;10.73;;;8.13;;
43216;SDS011;60511;42.686;23.300;2022-12-19T07:45:05;11.77;;;9.60;;
43216;SDS011;60511;42.686;23.300;2022-12-19T07:47:06;39.35;;;9.77;;
43216;SDS011;60511;42.686;23.300;2022-12-19T07:49:07;14.20;;;8.95;;
43216;SDS011;60511;42.686;23.300;2022-12-19T07:51:08;21.27;;;9.15;;
43216;SDS011;60511;42.686;23.300;2022-12-19T07:53:08;17.15;;;9.05;;
43216;SDS011;60511;42.686;23.300;2022-12-19T07:55:09;14.38;;;9.02;;
43216;SDS011;60511;42.686;23.300;2022-12-19T07:57:09;12.02;;;9.07;;
43216;SDS011;60511;42.686;23.300;2022-12-19T07:59:10;10.55;;;9.00;;
43216;SDS011;60511;42.686;23.300;2022-12-19T08:01:12;12.77;;;9.10;;
43216;SDS011;60511;42.686;23.300;2022-12-19T08:03:12;12.57;;;9.00;;
43216;SDS011;60511;42.686;23.300;2022-12-19T08:05:12;11.38;;;10.18;;
43216;SDS011;60511;42.686;23.300;2022-12-19T08:07:13;15.70;;;10.23;;
43216;SDS011;60511;42.686;23.300;2022-12-19T08:09:13;11.75;;;8.95;;
43216;SDS011;60511;42.686;23.300;2022-12-19T08:11:16;11.88;;;9.00;;
43216;SDS011;60511;42.686;23.300;2022-12-19T08:13:18;10.55;;;8.85;;
43216;SDS011;60511;42.686;23.300;2022-12-19T08:15:18;11.00;;;9.68;;
43216;SDS011;60511;42.686;23.300;2022-12-19T08:17:18;11.50;;;9.13;;
43216;SDS011;60511;42.686;23.300;2022-12-19T08:19:20;10.07;;;8.68;;
43216;SDS011;60511;42.686;23.300;2022-12-19T08:21:20;10.80;;;9.30;;
43216;SDS011;60511;42.686;23.300;2022-12-19T08:23:21;10.85;;;9.07;;
43216;SDS011;60511;42.686;23.300;2022-12-19T08:25:21;10.15;;;9.15;;
43216;SDS011;60511;42.686;23.300;2022-12-19T08:27:22;11.50;;;9.30;;
43216;SDS011;60511;42.686;23.300;2022-12-19T08:29:23;11.07;;;8.68;;
43216;SDS011;60511;42.686;23.300;2022-12-19T08:31:25;12.68;;;9.10;;
43216;SDS011;60511;42.686;23.300;2022-12-19T08:33:26;11.57;;;9.77;;
43216;SDS011;60511;42.686;23.300;2022-12-19T08:35:27;9.98;;;8.98;;
43216;SDS011;60511;42.686;23.300;2022-12-19T08:37:27;10.13;;;9.13;;
43216;SDS011;60511;42.686;23.300;2022-12-19T08:39:28;10.25;;;9.23;;
43216;SDS011;60511;42.686;23.300;2022-12-19T08:41:28;8.77;;;7.88;;
43216;SDS011;60511;42.686;23.300;2022-12-19T08:43:28;10.70;;;8.30;;
43216;SDS011;60511;42.686;23.300;2022-12-19T08:45:29;9.57;;;8.18;;
43216;SDS011;60511;42.686;23.300;2022-12-19T08:47:30;10.43;;;9.38;;
43216;SDS011;60511;42.686;23.300;2022-12-19T08:49:30;11.70;;;9.25;;
43216;SDS011;60511;42.686;23.300;2022-12-19T08:51:31;9.10;;;7.93;;
43216;SDS011;60511;42.686;23.300;2022-12-19T08:53:32;10.15;;;9.15;;
43216;SDS011;60511;42.686;23.300;2022-12-19T08:55:34;11.85;;;8.52;;
43216;SDS011;60511;42.686;23.300;2022-12-19T08:57:37;9.90;;;8.80;;
43216;SDS011;60511;42.686;23.300;2022-12-19T08:59:37;11.97;;;10.23;;
43216;SDS011;60511;42.686;23.300;2022-12-19T09:01:38;9.65;;;8.65;;
43216;SDS011;60511;42.686;23.300;2022-12-19T09:03:39;10.55;;;8.60;;
43216;SDS011;60511;42.686;23.300;2022-12-19T09:05:39;10.27;;;9.18;;
43216;SDS011;60511;42.686;23.300;2022-12-19T09:07:40;10.23;;;9.18;;
43216;SDS011;60511;42.686;23.300;2022-12-19T09:09:40;10.68;;;9.57;;
43216;SDS011;60511;42.686;23.300;2022-12-19T09:11:41;9.35;;;8.35;;
43216;SDS011;60511;42.686;23.300;2022-12-19T09:13:41;10.38;;;9.38;;
43216;SDS011;60511;42.686;23.300;2022-12-19T09:15:43;12.38;;;9.68;;
43216;SDS011;60511;42.686;23.300;2022-12-19T09:17:44;10.02;;;9.02;;
43216;SDS011;60511;42.686;23.300;2022-12-19T09:19:44;11.10;;;9.98;;
43216;SDS011;60511;42.686;23.300;2022-12-19T09:21:45;9.95;;;9.00;;
43216;SDS011;60511;42.686;23.300;2022-12-19T09:23:49;11.82;;;9.77;;
43216;SDS011;60511;42.686;23.300;2022-12-19T09:25:52;9.75;;;8.85;;
43216;SDS011;60511;42.686;23.300;2022-12-19T09:27:56;11.13;;;10.02;;
43216;SDS011;60511;42.686;23.300;2022-12-19T09:29:57;11.15;;;9.13;;
43216;SDS011;60511;42.686;23.300;2022-12-19T09:31:57;11.75;;;10.05;;
43216;SDS011;60511;42.686;23.300;2022-12-19T09:33:58;12.43;;;9.98;;
43216;SDS011;60511;42.686;23.300;2022-12-19T09:35:58;10.07;;;9.07;;
43216;SDS011;60511;42.686;23.300;2022-12-19T09:37:59;10.98;;;9.85;;
43216;SDS011;60511;42.686;23.300;2022-12-19T09:39:59;11.15;;;9.85;;
43216;SDS011;60511;42.686;23.300;2022-12-19T09:48:52;10.52;;;9.52;;
43216;SDS011;60511;42.686;23.300;2022-12-19T09:50:58;11.32;;;9.70;;
43216;SDS011;60511;42.686;23.300;2022-12-19T09:53:01;10.82;;;9.82;;
43216;SDS011;60511;42.686;23.300;2022-12-19T09:55:21;11.40;;;10.30;;
43216;SDS011;60511;42.686;23.300;2022-12-19T09:59:59;11.43;;;10.18;;
43216;SDS011;60511;42.686;23.300;2022-12-19T10:04:24;11.48;;;10.27;;
43216;SDS011;60511;42.686;23.300;2022-12-19T10:08:36;11.38;;;10.18;;
43216;SDS011;60511;42.686;23.300;2022-12-19T10:13:42;10.55;;;9.50;;
43216;SDS011;60511;42.686;23.300;2022-12-19T10:20:33;11.85;;;10.65;;
43216;SDS011;60511;42.686;23.300;2022-12-19T10:22:41;11.25;;;10.15;;
43216;SDS011;60511;42.686;23.300;2022-12-19T10:27:33;11.68;;;10.05;;
43216;SDS011;60511;42.686;23.300;2022-12-19T10:29:54;11.05;;;9.93;;
43216;SDS011;60511;42.686;23.300;2022-12-19T10:32:03;12.05;;;10.75;;
43216;SDS011;60511;42.686;23.300;2022-12-19T10:34:18;11.25;;;10.10;;
43216;SDS011;60511;42.686;23.300;2022-12-19T10:36:44;10.63;;;9.52;;
43216;SDS011;60511;42.686;23.300;2022-12-19T10:41:20;11.77;;;9.77;;
43216;SDS011;60511;42.686;23.300;2022-12-19T10:43:30;11.27;;;10.00;;
43216;SDS011;60511;42.686;23.300;2022-12-19T10:45:55;12.32;;;10.80;;
43216;SDS011;60511;42.686;23.300;2022-12-19T10:47:58;11.50;;;10.20;;
43216;SDS011;60511;42.686;23.300;2022-12-19T10:49:59;11.38;;;10.15;;
43216;SDS011;60511;42.686;23.300;2022-12-19T10:52:01;11.15;;;10.00;;
43216;SDS011;60511;42.686;23.300;2022-12-19T10:54:04;11.90;;;10.20;;
43216;SDS011;60511;42.686;23.300;2022-12-19T10:56:12;12.23;;;9.68;;
43216;SDS011;60511;42.686;23.300;2022-12-19T10:58:34;11.27;;;10.15;;
43216;SDS011;60511;42.686;23.300;2022-12-19T11:00:36;11.30;;;10.20;;
43216;SDS011;60511;42.686;23.300;2022-12-19T11:04:44;11.30;;;9.90;;
43216;SDS011;60511;42.686;23.300;2022-12-19T11:06:47;11.75;;;10.52;;
43216;SDS011;60511;42.686;23.300;2022-12-19T11:11:20;11.77;;;10.60;;
43216;SDS011;60511;42.686;23.300;2022-12-19T11:13:22;11.10;;;10.02;;
43216;SDS011;60511;42.686;23.300;2022-12-19T11:15:23;10.70;;;9.70;;
43216;SDS011;60511;42.686;23.300;2022-12-19T11:17:35;10.60;;;9.60;;
43216;SDS011;60511;42.686;23.300;2022-12-19T11:19:37;12.23;;;10.95;;
43216;SDS011;60511;42.686;23.300;2022-12-19T11:21:38;11.68;;;10.48;;
43216;SDS011;60511;42.686;23.300;2022-12-19T11:23:47;11.15;;;10.02;;
43216;SDS011;60511;42.686;23.300;2022-12-19T11:25:54;12.00;;;10.80;;
43216;SDS011;60511;42.686;23.300;2022-12-19T11:27:59;12.57;;;10.45;;
43216;SDS011;60511;42.686;23.300;2022-12-19T11:30:08;10.55;;;9.55;;
43216;SDS011;60511;42.686;23.300;2022-12-19T11:32:34;12.55;;;11.27;;
43216;SDS011;60511;42.686;23.300;2022-12-19T11:34:39;11.75;;;10.57;;
43216;SDS011;60511;42.686;23.300;2022-12-19T11:38:54;12.23;;;10.93;;
43216;SDS011;60511;42.686;23.300;2022-12-19T11:40:55;11.80;;;10.40;;
43216;SDS011;60511;42.686;23.300;2022-12-19T11:43:00;10.95;;;9.85;;
43216;SDS011;60511;42.686;23.300;2022-12-19T11:45:17;12.13;;;10.75;;
43216;SDS011;60511;42.686;23.300;2022-12-19T11:47:43;11.43;;;10.32;;
43216;SDS011;60511;42.686;23.300;2022-12-19T11:49:53;10.55;;;9.55;;
43216;SDS011;60511;42.686;23.300;2022-12-19T11:56:28;11.18;;;10.07;;
43216;SDS011;60511;42.686;23.300;2022-12-19T11:58:29;12.15;;;10.35;;
43216;SDS011;60511;42.686;23.300;2022-12-19T12:00:29;11.05;;;9.85;;
43216;SDS011;60511;42.686;23.300;2022-12-19T12:07:10;11.68;;;10.48;;
43216;SDS011;60511;42.686;23.300;2022-12-19T12:16:15;11.77;;;10.55;;
43216;SDS011;60511;42.686;23.300;2022-12-19T12:18:22;10.95;;;9.57;;
43216;SDS011;60511;42.686;23.300;2022-12-19T12:22:55;10.82;;;9.63;;
43216;SDS011;60511;42.686;23.300;2022-12-19T12:25:04;11.05;;;10.00;;
43216;SDS011;60511;42.686;23.300;2022-12-19T12:29:53;11.13;;;10.02;;
43216;SDS011;60511;42.686;23.300;2022-12-19T12:34:40;11.57;;;10.38;;
43216;SDS011;60511;42.686;23.300;2022-12-19T12:36:56;11.07;;;9.57;;
43216;SDS011;60511;42.686;23.300;2022-12-19T12:39:11;11.02;;;9.95;;
43216;SDS011;60511;42.686;23.300;2022-12-19T12:44:09;12.00;;;10.40;;
43216;SDS011;60511;42.686;23.300;2022-12-19T12:46:15;10.65;;;9.65;;
43216;SDS011;60511;42.686;23.300;2022-12-19T12:50:39;10.95;;;9.85;;
43216;SDS011;60511;42.686;23.300;2022-12-19T12:52:41;10.23;;;9.23;;
43216;SDS011;60511;42.686;23.300;2022-12-19T12:54:47;10.77;;;9.68;;
43216;SDS011;60511;42.686;23.300;2022-12-19T12:56:49;10.88;;;9.77;;
43216;SDS011;60511;42.686;23.300;2022-12-19T13:03:16;11.63;;;10.53;;
43216;SDS011;60511;42.686;23.300;2022-12-19T13:05:28;10.63;;;9.63;;
43216;SDS011;60511;42.686;23.300;2022-12-19T13:07:43;11.18;;;10.07;;
43216;SDS011;60511;42.686;23.300;2022-12-19T13:10:03;10.60;;;9.48;;
43216;SDS011;60511;42.686;23.300;2022-12-19T13:12:26;10.73;;;9.23;;
43216;SDS011;60511;42.686;23.300;2022-12-19T13:14:49;10.77;;;9.60;;
43216;SDS011;60511;42.686;23.300;2022-12-19T13:16:51;9.82;;;8.70;;
43216;SDS011;60511;42.686;23.300;2022-12-19T13:19:01;10.95;;;9.88;;
43216;SDS011;60511;42.686;23.300;2022-12-19T13:21:12;10.65;;;9.55;;
43216;SDS011;60511;42.686;23.300;2022-12-19T13:27:39;9.82;;;8.95;;
43216;SDS011;60511;42.686;23.300;2022-12-19T13:32:08;10.68;;;9.20;;
43216;SDS011;60511;42.686;23.300;2022-12-19T13:34:15;9.30;;;8.23;;
43216;SDS011;60511;42.686;23.300;2022-12-19T13:38:52;10.02;;;8.60;;
43216;SDS011;60511;42.686;23.300;2022-12-19T13:40:59;10.00;;;9.00;;
43216;SDS011;60511;42.686;23.300;2022-12-19T13:43:34;9.93;;;9.02;;
43216;SDS011;60511;42.686;23.300;2022-12-19T13:45:47;10.52;;;9.43;;
43216;SDS011;60511;42.686;23.300;2022-12-19T13:47:51;10.27;;;9.27;;
43216;SDS011;60511;42.686;23.300;2022-12-19T13:49:55;9.48;;;8.48;;
43216;SDS011;60511;42.686;23.300;2022-12-19T13:51:56;10.32;;;9.35;;
43216;SDS011;60511;42.686;23.300;2022-12-19T13:53:58;10.13;;;9.10;;
43216;SDS011;60511;42.686;23.300;2022-12-19T13:56:00;9.75;;;8.85;;